Time;durP1;ratioP1;P1;durP2;ratioP2;P2;SDS_P1;SDS_P2;PMS_P1;PMS_P2;Temp;Humidity;BMP_temperature;BMP_pressure;BME280_temperature;BME280_humidity;BME280_pressure;Samples;Min_cycle;Max_cycle;Signal;HPM_P1;HPM_P2
2022/08/27 00:03:45;;;;;;;11.68;7.40;;;24.60;77.90;;;;;;10050983;28;20377;-67
2022/08/27 00:08:36;;;;;;;14.05;8.32;;;24.80;77.80;;;;;;10049849;28;20049;-67
2022/08/27 00:13:26;;;;;;;12.20;7.75;;;24.60;78.40;;;;;;10041324;28;20479;-67
2022/08/27 00:18:17;;;;;;;12.77;7.65;;;24.70;78.00;;;;;;10060914;28;20116;-67
2022/08/27 00:23:08;;;;;;;12.90;7.15;;;24.50;78.40;;;;;;10047067;28;20064;-67
2022/08/27 00:27:59;;;;;;;10.52;6.82;;;24.40;79.10;;;;;;10051462;28;20096;-67
2022/08/27 00:32:49;;;;;;;11.05;6.95;;;24.60;78.90;;;;;;10071185;28;20081;-66
2022/08/27 00:37:41;;;;;;;11.75;8.32;;;24.60;78.80;;;;;;10076229;28;20029;-66
2022/08/27 00:42:31;;;;;;;9.55;6.88;;;24.80;78.70;;;;;;10080422;28;20036;-66
2022/08/27 00:47:25;;;;;;;11.65;7.75;;;24.70;79.10;;;;;;10075540;28;20392;-66
2022/08/27 00:52:26;;;;;;;13.68;8.73;;;24.70;79.30;;;;;;10063126;28;20041;-66
2022/08/27 00:57:17;;;;;;;14.23;9.38;;;24.20;80.40;;;;;;10063357;28;20258;-66
2022/08/27 01:02:17;;;;;;;14.95;9.48;;;23.90;81.50;;;;;;10062051;28;20060;-66
2022/08/27 01:07:09;;;;;;;14.45;8.93;;;23.60;82.90;;;;;;10062330;28;20491;-66
2022/08/27 01:11:59;;;;;;;16.60;9.45;;;23.50;83.70;;;;;;10057985;28;20496;-67
2022/08/27 01:16:54;;;;;;;12.32;8.07;;;23.50;84.90;;;;;;10064479;28;20088;-67
2022/08/27 01:22:12;;;;;;;13.40;8.88;;;23.80;85.70;;;;;;10058967;28;20033;-67
2022/08/27 01:27:06;;;;;;;10.40;7.88;;;24.00;86.30;;;;;;10068859;28;20049;-67
2022/08/27 01:32:05;;;;;;;10.82;7.20;;;24.20;86.60;;;;;;10053355;28;20034;-66
2022/08/27 01:36:56;;;;;;;11.10;7.65;;;24.30;87.30;;;;;;10062431;28;20021;-66
2022/08/27 01:41:46;;;;;;;10.90;7.70;;;24.30;88.00;;;;;;10057752;28;20430;-67
2022/08/27 01:46:37;;;;;;;11.68;8.63;;;24.40;88.80;;;;;;10055945;28;20033;-66
2022/08/27 01:51:27;;;;;;;11.10;7.28;;;24.40;89.50;;;;;;10054280;28;20037;-66
2022/08/27 01:56:18;;;;;;;11.82;8.52;;;24.20;90.20;;;;;;10058687;28;20067;-65
2022/08/27 02:01:12;;;;;;;18.38;9.20;;;24.20;90.50;;;;;;10054180;28;20037;-65
2022/08/27 02:06:06;;;;;;;11.52;8.00;;;24.30;90.90;;;;;;10060325;28;20041;-66
2022/08/27 02:10:57;;;;;;;12.50;8.80;;;23.90;91.40;;;;;;10042656;28;20410;-66
2022/08/27 02:15:48;;;;;;;17.00;9.27;;;23.70;92.00;;;;;;10059988;28;20039;-65
2022/08/27 02:20:39;;;;;;;14.90;10.45;;;23.60;92.60;;;;;;10054141;28;20403;-67
2022/08/27 02:25:30;;;;;;;13.98;10.02;;;23.60;93.10;;;;;;10064983;28;20044;-65
2022/08/27 02:30:22;;;;;;;14.73;9.93;;;23.50;93.60;;;;;;10050223;28;20053;-65
2022/08/27 02:35:14;;;;;;;14.35;9.52;;;23.50;94.10;;;;;;10054382;28;20021;-65
2022/08/27 02:40:07;;;;;;;15.38;9.95;;;23.40;94.40;;;;;;10062467;28;20033;-65
2022/08/27 02:44:58;;;;;;;12.00;9.20;;;23.30;94.80;;;;;;10061764;28;20353;-66
2022/08/27 02:49:48;;;;;;;12.57;8.35;;;23.30;95.20;;;;;;10053591;28;20042;-66
2022/08/27 02:54:39;;;;;;;14.00;8.52;;;23.30;95.70;;;;;;10054304;28;20396;-65
2022/08/27 02:59:30;;;;;;;14.90;8.55;;;23.40;95.70;;;;;;10054088;28;20087;-65
2022/08/27 03:04:21;;;;;;;13.95;9.20;;;23.60;95.90;;;;;;10066625;28;20022;-66
2022/08/27 03:09:12;;;;;;;15.15;9.48;;;23.60;95.90;;;;;;10060488;28;20056;-66
2022/08/27 03:14:03;;;;;;;10.85;7.82;;;23.40;96.30;;;;;;10056285;28;20164;-66
2022/08/27 03:18:53;;;;;;;15.35;9.52;;;23.50;96.60;;;;;;10057352;28;20038;-67
2022/08/27 03:23:44;;;;;;;15.73;8.90;;;23.70;96.60;;;;;;10046198;28;20018;-66
2022/08/27 03:28:35;;;;;;;12.23;8.48;;;23.60;96.90;;;;;;10061035;28;20057;-67
2022/08/27 03:33:31;;;;;;;12.10;9.05;;;23.70;97.00;;;;;;10052372;28;20036;-66
2022/08/27 03:38:23;;;;;;;12.48;9.07;;;23.70;96.90;;;;;;10057165;28;20156;-66
2022/08/27 03:43:17;;;;;;;13.75;8.50;;;23.80;96.90;;;;;;10058534;28;20111;-67
2022/08/27 03:48:08;;;;;;;12.18;8.32;;;23.60;97.20;;;;;;10051953;28;20033;-66
2022/08/27 03:53:00;;;;;;;13.77;9.32;;;23.60;97.30;;;;;;10051573;28;20040;-66
2022/08/27 03:57:50;;;;;;;11.40;7.35;;;23.60;97.30;;;;;;10052594;28;20120;-66
2022/08/27 04:02:42;;;;;;;13.18;8.43;;;23.70;97.30;;;;;;10052580;28;20215;-65
2022/08/27 04:07:33;;;;;;;9.82;7.55;;;23.60;97.40;;;;;;10051700;28;20458;-66
2022/08/27 04:12:25;;;;;;;9.45;6.90;;;23.60;97.50;;;;;;10033882;28;20045;-66
2022/08/27 04:17:15;;;;;;;16.02;8.90;;;23.70;97.50;;;;;;10066717;28;20056;-67
2022/08/27 04:22:07;;;;;;;12.07;7.72;;;23.60;97.70;;;;;;10057839;28;20037;-66
2022/08/27 04:26:59;;;;;;;10.60;7.40;;;23.50;97.90;;;;;;10041552;28;20091;-67
2022/08/27 04:31:50;;;;;;;11.27;7.90;;;23.40;98.00;;;;;;10088305;28;20534;-66
2022/08/27 04:36:40;;;;;;;13.55;7.93;;;23.40;98.00;;;;;;10074987;28;20313;-66
2022/08/27 04:41:32;;;;;;;11.05;7.68;;;23.40;98.10;;;;;;10081139;28;20029;-67
2022/08/27 04:46:25;;;;;;;13.20;8.43;;;23.30;98.30;;;;;;10076226;28;20503;-67
2022/08/27 04:51:16;;;;;;;10.77;7.47;;;23.30;98.30;;;;;;10071152;28;20620;-67
2022/08/27 04:56:07;;;;;;;12.95;8.93;;;23.10;98.40;;;;;;10067692;28;20028;-66
2022/08/27 05:01:00;;;;;;;13.25;8.80;;;23.20;98.50;;;;;;10060054;28;20052;-66
2022/08/27 05:05:53;;;;;;;13.55;7.82;;;23.30;98.40;;;;;;10057070;28;20516;-66
2022/08/27 05:10:46;;;;;;;10.40;8.15;;;23.30;98.40;;;;;;10065309;28;20103;-67
2022/08/27 05:15:38;;;;;;;11.65;8.05;;;23.30;98.40;;;;;;10061612;28;20022;-66
2022/08/27 05:20:30;;;;;;;16.88;8.82;;;23.40;98.30;;;;;;10050669;28;20045;-66
2022/08/27 05:25:21;;;;;;;11.60;7.88;;;23.50;98.40;;;;;;10065134;28;20024;-66
2022/08/27 05:30:12;;;;;;;13.52;8.32;;;23.40;98.50;;;;;;10059671;28;20053;-66
2022/08/27 05:35:03;;;;;;;12.98;9.02;;;23.50;98.40;;;;;;10056044;28;20032;-66
2022/08/27 05:39:53;;;;;;;11.88;8.02;;;23.30;98.60;;;;;;10065135;28;20048;-66
2022/08/27 05:44:45;;;;;;;12.38;9.02;;;23.40;98.60;;;;;;10061245;28;20040;-66
2022/08/27 05:49:36;;;;;;;14.48;9.40;;;23.40;98.70;;;;;;10037195;28;20033;-66
2022/08/27 05:54:27;;;;;;;11.82;8.48;;;23.50;98.50;;;;;;10055628;28;20412;-66
2022/08/27 06:04:27;;;;;;;12.27;8.82;;;23.50;98.50;;;;;;10068130;28;20029;-66
2022/08/27 06:09:21;;;;;;;12.88;8.57;;;23.30;98.60;;;;;;10062905;28;20064;-66
2022/08/27 06:14:12;;;;;;;14.30;8.00;;;23.00;98.90;;;;;;10062501;28;20021;-67
2022/08/27 06:19:04;;;;;;;16.25;9.57;;;23.10;99.00;;;;;;10057068;28;20049;-67
2022/08/27 06:23:55;;;;;;;12.93;8.35;;;23.00;98.90;;;;;;10054626;28;20022;-67
2022/08/27 06:28:46;;;;;;;10.45;7.80;;;23.30;98.70;;;;;;10065368;28;20357;-67
2022/08/27 06:33:37;;;;;;;11.32;7.85;;;23.40;98.70;;;;;;10054468;28;20106;-66
2022/08/27 06:38:28;;;;;;;12.75;8.73;;;23.40;98.80;;;;;;10062563;28;20044;-66
2022/08/27 06:43:19;;;;;;;12.32;7.93;;;23.50;98.80;;;;;;10054710;28;20036;-67
2022/08/27 06:48:09;;;;;;;12.00;8.27;;;23.50;98.80;;;;;;10054057;28;20562;-66
2022/08/27 06:53:00;;;;;;;11.88;8.50;;;23.60;98.60;;;;;;10053300;28;20033;-66
2022/08/27 06:57:50;;;;;;;17.10;10.48;;;23.60;98.60;;;;;;10057424;28;20041;-66
2022/08/27 07:02:41;;;;;;;13.13;8.60;;;23.80;98.50;;;;;;10061795;28;20411;-67
2022/08/27 07:07:33;;;;;;;14.35;8.85;;;23.80;98.60;;;;;;10065394;28;20028;-67
2022/08/27 07:12:24;;;;;;;12.98;8.90;;;23.80;98.40;;;;;;10056990;28;20586;-66
2022/08/27 07:17:16;;;;;;;13.75;7.63;;;23.60;98.60;;;;;;10059797;28;20036;-67
2022/08/27 07:22:06;;;;;;;15.93;9.10;;;23.70;98.60;;;;;;10051384;28;20057;-66
2022/08/27 07:26:57;;;;;;;12.50;8.57;;;23.70;98.50;;;;;;10049107;28;20419;-66
2022/08/27 07:31:48;;;;;;;10.73;8.02;;;23.90;98.50;;;;;;10052369;28;20037;-66
2022/08/27 07:36:39;;;;;;;13.50;9.32;;;23.80;98.50;;;;;;10056431;28;20100;-66
2022/08/27 07:41:31;;;;;;;17.38;8.88;;;23.90;98.40;;;;;;10058354;28;20052;-66
2022/08/27 07:46:23;;;;;;;17.00;9.10;;;23.90;98.50;;;;;;10057199;28;20105;-67
2022/08/27 07:51:16;;;;;;;16.30;10.20;;;24.00;98.50;;;;;;10048051;28;20077;-66
2022/08/27 07:56:07;;;;;;;14.70;8.85;;;24.10;98.50;;;;;;10061171;28;20025;-66
2022/08/27 08:00:59;;;;;;;14.63;8.75;;;24.10;98.60;;;;;;10047047;28;20026;-67
2022/08/27 08:05:52;;;;;;;12.13;9.48;;;24.10;98.50;;;;;;10058668;28;20017;-67
2022/08/27 08:10:42;;;;;;;16.25;9.98;;;24.10;98.50;;;;;;10063220;28;20064;-67
2022/08/27 08:15:33;;;;;;;12.32;8.25;;;24.00;98.60;;;;;;10070981;28;20546;-66
2022/08/27 08:20:24;;;;;;;13.98;8.65;;;23.90;98.70;;;;;;10060978;28;20465;-65
2022/08/27 08:25:15;;;;;;;14.95;8.80;;;24.00;98.70;;;;;;10058657;28;20105;-66
2022/08/27 08:30:07;;;;;;;14.23;8.07;;;24.20;98.40;;;;;;10057830;28;20057;-66
2022/08/27 08:34:58;;;;;;;13.18;8.68;;;24.30;98.30;;;;;;10065146;28;20502;-67
2022/08/27 08:39:49;;;;;;;13.63;8.95;;;24.60;98.20;;;;;;10065797;28;20334;-66
2022/08/27 08:44:44;;;;;;;13.10;8.88;;;24.80;98.20;;;;;;10069179;28;20025;-66
2022/08/27 08:49:56;;;;;;;11.10;7.88;;;24.70;98.20;;;;;;10051111;28;20458;-67
2022/08/27 08:54:48;;;;;;;12.00;8.13;;;24.90;98.00;;;;;;10048083;28;20307;-65
2022/08/27 08:59:44;;;;;;;13.00;8.35;;;25.00;98.00;;;;;;10038398;28;20044;-66
2022/08/27 09:04:35;;;;;;;12.48;8.82;;;25.00;98.00;;;;;;10056666;28;20029;-67
2022/08/27 09:09:37;;;;;;;12.85;7.78;;;24.80;98.00;;;;;;10070108;28;20118;-67
2022/08/27 09:14:39;;;;;;;13.60;8.90;;;24.60;98.10;;;;;;10064319;28;20041;-66
2022/08/27 09:19:30;;;;;;;12.45;7.82;;;24.30;98.30;;;;;;10049897;28;20040;-67
2022/08/27 09:24:59;;;;;;;15.60;7.78;;;24.10;98.50;;;;;;10057216;28;20411;-66
2022/08/27 09:29:52;;;;;;;12.52;8.90;;;24.10;98.60;;;;;;10040243;28;20451;-66
2022/08/27 09:34:44;;;;;;;15.18;8.93;;;24.20;98.50;;;;;;10056396;28;20061;-66
2022/08/27 09:39:59;;;;;;;13.68;9.20;;;24.40;98.40;;;;;;10064593;28;20053;-66
2022/08/27 09:44:52;;;;;;;14.65;10.57;;;24.40;98.40;;;;;;10067907;28;20349;-66
2022/08/27 09:49:43;;;;;;;14.68;10.00;;;24.60;98.40;;;;;;10055530;28;20140;-65
2022/08/27 09:54:42;;;;;;;15.55;9.32;;;24.90;98.30;;;;;;10055721;28;20058;-66
2022/08/27 09:59:42;;;;;;;12.27;9.13;;;25.10;98.10;;;;;;10042286;28;20539;-66
2022/08/27 10:04:44;;;;;;;13.35;9.27;;;25.40;98.00;;;;;;10056050;28;20029;-66
2022/08/27 10:09:41;;;;;;;15.18;9.88;;;25.30;98.00;;;;;;10061985;28;20060;-66
2022/08/27 10:14:45;;;;;;;14.02;8.57;;;25.30;98.00;;;;;;10054093;28;20257;-67
2022/08/27 10:19:47;;;;;;;11.10;7.53;;;25.20;98.00;;;;;;10054197;28;20446;-67
2022/08/27 10:25:06;;;;;;;12.00;8.23;;;25.20;97.90;;;;;;10054387;28;20371;-67
2022/08/27 10:30:06;;;;;;;14.32;8.45;;;24.90;98.10;;;;;;10029935;28;20029;-65
2022/08/27 10:35:16;;;;;;;12.07;7.93;;;24.70;98.40;;;;;;10053752;28;20151;-66
2022/08/27 10:40:19;;;;;;;12.95;8.93;;;24.90;98.20;;;;;;10062118;28;20029;-65
2022/08/27 10:45:09;;;;;;;11.05;7.43;;;24.90;98.10;;;;;;10059799;28;20021;-66
2022/08/27 10:50:10;;;;;;;11.02;7.30;;;24.60;98.30;;;;;;10057083;28;20403;-66
2022/08/27 10:55:25;;;;;;;11.70;6.88;;;24.40;98.50;;;;;;10046049;28;20032;-66
2022/08/27 11:00:21;;;;;;;10.15;5.85;;;24.30;98.60;;;;;;10044690;28;20029;-66
2022/08/27 11:05:46;;;;;;;9.45;5.72;;;24.40;98.50;;;;;;10051082;28;20018;-65
2022/08/27 11:10:48;;;;;;;7.18;4.65;;;24.60;98.40;;;;;;10056745;28;20045;-65
2022/08/27 11:15:43;;;;;;;8.82;5.53;;;24.70;98.20;;;;;;10045700;28;20030;-66
2022/08/27 11:20:52;;;;;;;6.65;5.63;;;25.00;98.10;;;;;;10052931;28;20048;-66
2022/08/27 11:25:56;;;;;;;7.65;5.57;;;25.20;97.70;;;;;;10040634;28;20060;-67
2022/08/27 11:30:47;;;;;;;8.05;6.22;;;24.90;98.10;;;;;;10064346;28;20068;-67
2022/08/27 11:35:59;;;;;;;10.95;6.90;;;25.00;98.10;;;;;;10049007;28;20032;-66
2022/08/27 11:41:11;;;;;;;11.05;6.85;;;25.20;97.90;;;;;;10059405;28;20021;-66
2022/08/27 11:46:05;;;;;;;7.13;5.90;;;25.50;97.80;;;;;;10034264;28;20026;-66
2022/08/27 11:51:02;;;;;;;7.07;5.07;;;25.60;97.80;;;;;;10050198;28;20041;-66
2022/08/27 11:55:53;;;;;;;6.35;4.75;;;25.80;97.50;;;;;;10051599;28;20411;-67
2022/08/27 12:00:47;;;;;;;7.28;5.25;;;26.10;97.30;;;;;;10057047;28;20156;-66
2022/08/27 12:05:54;;;;;;;6.17;5.00;;;26.20;97.10;;;;;;10057023;28;20067;-65
2022/08/27 12:11:11;;;;;;;5.45;4.82;;;26.40;96.90;;;;;;10037343;28;20044;-66
2022/08/27 12:16:40;;;;;;;4.70;4.07;;;26.10;97.00;;;;;;10063536;28;20029;-65
2022/08/27 12:21:55;;;;;;;6.10;5.25;;;26.20;96.90;;;;;;10012026;28;20084;-66
2022/08/27 12:26:59;;;;;;;;;;;26.10;96.90;;;;;;10058436;28;20025;-66
2022/08/27 12:32:01;;;;;;;6.80;4.65;;;26.80;96.70;;;;;;10060705;28;20041;-66
2022/08/27 12:36:54;;;;;;;6.18;5.25;;;26.80;96.50;;;;;;10061152;28;20070;-65
2022/08/27 12:41:47;;;;;;;5.10;4.47;;;27.20;96.40;;;;;;10064916;28;20443;-66
2022/08/27 12:46:52;;;;;;;5.55;4.82;;;27.50;96.10;;;;;;10055341;28;20102;-65
2022/08/27 12:51:44;;;;;;;5.72;4.85;;;27.40;96.00;;;;;;10057768;28;20037;-66
2022/08/27 12:56:56;;;;;;;6.07;5.47;;;27.40;96.10;;;;;;10057314;28;20502;-67
2022/08/27 13:02:05;;;;;;;7.95;4.88;;;27.60;95.90;;;;;;10055208;28;20120;-66
2022/08/27 13:06:59;;;;;;;5.60;4.60;;;27.70;96.00;;;;;;10077521;28;20492;-66
2022/08/27 13:11:55;;;;;;;5.25;4.70;;;28.10;95.90;;;;;;10057490;28;20041;-67
2022/08/27 13:17:01;;;;;;;5.07;4.57;;;28.50;95.80;;;;;;10058216;28;20025;-67
2022/08/27 13:21:53;;;;;;;4.50;4.10;;;29.30;95.00;;;;;;10055763;28;20021;-67
2022/08/27 13:26:48;;;;;;;4.97;3.83;;;30.20;94.60;;;;;;10065547;28;20215;-67
2022/08/27 13:31:38;;;;;;;5.63;4.28;;;30.90;93.60;;;;;;10054277;28;20562;-66
2022/08/27 13:36:32;;;;;;;6.50;5.10;;;31.70;92.70;;;;;;10063926;28;20029;-65
2022/08/27 13:41:32;;;;;;;5.60;5.03;;;33.10;91.70;;;;;;10066984;28;20044;-65
2022/08/27 13:46:30;;;;;;;7.50;4.90;;;32.40;90.70;;;;;;10052135;28;20013;-65
2022/08/27 13:51:33;;;;;;;6.13;5.50;;;32.40;90.10;;;;;;10051330;28;20067;-67
2022/08/27 13:56:27;;;;;;;5.72;5.22;;;32.10;90.20;;;;;;10054377;28;20577;-65
2022/08/27 14:01:29;;;;;;;5.25;4.75;;;32.20;89.30;;;;;;10055510;28;20022;-66
2022/08/27 14:06:21;;;;;;;;;;;31.70;88.80;;;;;;10056873;28;20151;-66
2022/08/27 14:11:14;;;;;;;6.90;4.53;;;31.70;89.00;;;;;;10052208;28;19948;-66
2022/08/27 14:16:22;;;;;;;7.65;5.07;;;32.40;87.60;;;;;;10065400;28;20187;-66
2022/08/27 14:21:13;;;;;;;6.20;5.38;;;31.80;87.30;;;;;;10047472;28;20212;-66
2022/08/27 14:26:04;;;;;;;6.53;4.95;;;31.00;88.00;;;;;;10051131;28;20640;-66
2022/08/27 14:30:54;;;;;;;6.28;4.97;;;32.50;86.00;;;;;;10053317;28;20049;-66
2022/08/27 14:35:46;;;;;;;7.03;5.17;;;32.50;84.90;;;;;;10064178;28;20048;-66
2022/08/27 14:40:37;;;;;;;7.00;5.72;;;32.90;84.00;;;;;;10060895;28;20032;-66
2022/08/27 14:45:27;;;;;;;5.23;4.73;;;33.70;83.20;;;;;;10053026;28;20028;-67
2022/08/27 14:50:18;;;;;;;5.47;4.97;;;34.00;80.00;;;;;;10056469;28;20068;-66
2022/08/27 14:55:10;;;;;;;6.97;4.73;;;33.30;79.80;;;;;;10045586;28;20029;-66
2022/08/27 15:00:00;;;;;;;6.13;5.45;;;33.50;79.10;;;;;;10057209;28;20025;-65
2022/08/27 15:04:51;;;;;;;6.85;5.40;;;34.60;75.80;;;;;;10033732;28;20021;-65
2022/08/27 15:09:42;;;;;;;5.47;4.85;;;34.80;75.20;;;;;;10057158;28;20068;-65
2022/08/27 15:14:34;;;;;;;;;;;35.80;72.80;;;;;;10064348;28;20530;-66
2022/08/27 15:19:27;;;;;;;7.35;5.10;;;36.40;70.30;;;;;;10061382;28;19905;-67
2022/08/27 15:24:23;;;;;;;6.75;5.03;;;36.40;70.00;;;;;;10053091;28;20072;-66
2022/08/27 15:29:14;;;;;;;7.70;5.65;;;36.40;68.50;;;;;;10064023;28;20104;-66
2022/08/27 15:34:05;;;;;;;6.80;5.37;;;35.10;68.90;;;;;;10052503;28;20389;-65
2022/08/27 15:38:56;;;;;;;6.47;5.17;;;35.50;67.60;;;;;;10067510;28;20075;-65
2022/08/27 15:43:46;;;;;;;7.55;5.30;;;34.60;67.40;;;;;;10052515;28;20387;-66
2022/08/27 15:48:37;;;;;;;6.78;5.30;;;34.40;67.30;;;;;;10037134;28;20022;-65
2022/08/27 15:53:28;;;;;;;6.43;5.05;;;34.80;65.70;;;;;;10051777;28;20044;-65
2022/08/27 15:58:18;;;;;;;6.82;5.15;;;33.40;66.30;;;;;;10051213;28;20033;-67
2022/08/27 16:03:12;;;;;;;8.05;5.25;;;33.30;66.40;;;;;;10051047;28;20025;-66
2022/08/27 16:08:04;;;;;;;5.85;5.25;;;34.30;64.80;;;;;;10044076;28;20014;-65
2022/08/27 16:12:55;;;;;;;9.47;5.10;;;34.80;63.80;;;;;;10073383;28;20045;-66
2022/08/27 16:17:45;;;;;;;6.82;5.22;;;34.70;63.20;;;;;;10036759;28;20068;-65
2022/08/27 16:22:36;;;;;;;5.47;4.90;;;35.30;62.10;;;;;;10057860;28;20035;-66
2022/08/27 16:27:27;;;;;;;7.03;5.10;;;35.10;61.90;;;;;;10071382;28;20532;-67
2022/08/27 16:32:18;;;;;;;7.57;5.50;;;35.30;61.50;;;;;;10055149;28;20553;-66
2022/08/27 16:37:09;;;;;;;7.38;5.10;;;36.00;60.50;;;;;;10065651;28;20495;-66
2022/08/27 16:41:59;;;;;;;5.43;4.78;;;36.80;59.00;;;;;;10058901;28;20033;-66
2022/08/27 16:46:50;;;;;;;8.75;6.28;;;36.10;59.00;;;;;;10061542;28;20444;-67
2022/08/27 16:51:42;;;;;;;8.77;5.57;;;35.70;59.20;;;;;;10056761;28;20045;-65
2022/08/27 16:56:33;;;;;;;6.40;5.33;;;35.30;59.30;;;;;;10058338;28;20013;-66
2022/08/27 17:01:24;;;;;;;6.63;5.72;;;35.30;59.30;;;;;;10057159;28;20094;-66
2022/08/27 17:06:15;;;;;;;9.00;6.07;;;34.50;60.00;;;;;;10071589;28;20039;-66
2022/08/27 17:11:07;;;;;;;7.70;5.45;;;32.80;61.60;;;;;;10056130;28;20050;-66
2022/08/27 17:16:00;;;;;;;7.38;5.63;;;31.40;64.30;;;;;;10055717;28;20064;-65
2022/08/27 17:20:51;;;;;;;10.35;5.38;;;31.80;63.90;;;;;;10052886;28;20037;-66
2022/08/27 17:25:42;;;;;;;6.53;5.22;;;30.40;65.70;;;;;;10050820;28;20031;-65
2022/08/27 17:30:32;;;;;;;6.80;5.53;;;29.30;67.70;;;;;;10050910;28;20068;-66
2022/08/27 17:35:23;;;;;;;8.50;5.47;;;28.60;68.90;;;;;;10056921;28;20033;-67
2022/08/27 17:40:14;;;;;;;6.20;4.53;;;28.50;69.10;;;;;;10063604;28;20139;-66
2022/08/27 17:45:05;;;;;;;9.43;5.70;;;28.30;69.60;;;;;;10058474;28;20514;-66
2022/08/27 17:49:57;;;;;;;6.13;5.53;;;28.10;70.30;;;;;;10055699;28;20037;-66
2022/08/27 17:54:50;;;;;;;6.93;5.47;;;28.10;70.40;;;;;;10056508;28;20021;-66
2022/08/27 17:59:41;;;;;;;11.80;6.60;;;28.20;70.70;;;;;;10061627;28;20033;-66
2022/08/27 18:04:32;;;;;;;10.02;7.53;;;28.10;71.30;;;;;;10055819;28;20026;-68
2022/08/27 18:09:22;;;;;;;10.38;7.22;;;27.90;72.20;;;;;;10061966;28;20062;-64
2022/08/27 18:14:13;;;;;;;7.90;5.68;;;27.70;72.90;;;;;;10062091;28;20369;-66
2022/08/27 18:19:04;;;;;;;8.70;5.88;;;27.60;73.70;;;;;;10056461;28;20065;-66
2022/08/27 18:23:55;;;;;;;10.82;6.07;;;27.50;74.60;;;;;;10047416;28;20105;-67
2022/08/27 18:28:46;;;;;;;9.68;5.93;;;27.40;75.40;;;;;;10051235;28;20160;-66
2022/08/27 18:33:37;;;;;;;9.80;7.15;;;27.20;76.20;;;;;;10053010;28;20108;-65
2022/08/27 18:38:27;;;;;;;9.82;7.40;;;27.20;76.70;;;;;;10059506;28;20105;-66
2022/08/27 18:43:20;;;;;;;7.78;6.10;;;27.10;77.50;;;;;;10052961;28;20029;-66
2022/08/27 18:48:17;;;;;;;9.98;6.80;;;26.90;78.50;;;;;;10053175;28;20039;-66
2022/08/27 18:53:08;;;;;;;12.35;7.70;;;26.70;79.30;;;;;;10052723;28;20038;-65
2022/08/27 18:57:59;;;;;;;9.00;7.25;;;26.40;80.70;;;;;;10052629;28;20056;-66
2022/08/27 19:02:51;;;;;;;12.18;7.95;;;26.40;81.40;;;;;;10052899;28;20446;-65
2022/08/27 19:07:42;;;;;;;10.35;6.82;;;26.30;82.10;;;;;;10038563;28;20044;-65
2022/08/27 19:12:33;;;;;;;9.98;6.13;;;26.20;83.10;;;;;;10066617;28;20403;-65
2022/08/27 19:17:31;;;;;;;9.30;6.95;;;26.10;84.00;;;;;;10040609;28;20025;-66
2022/08/27 19:22:22;;;;;;;8.63;7.10;;;26.00;85.30;;;;;;10049452;28;20148;-65
2022/08/27 19:27:19;;;;;;;12.32;7.90;;;26.00;85.60;;;;;;10065135;28;20397;-66
2022/08/27 19:32:10;;;;;;;10.07;7.45;;;26.10;86.30;;;;;;10051864;28;20034;-65
2022/08/27 19:37:01;;;;;;;11.88;7.47;;;25.90;87.10;;;;;;10058940;28;20784;-69
2022/08/27 19:41:52;;;;;;;12.93;8.23;;;25.80;88.50;;;;;;10035182;28;20021;-67
2022/08/27 19:46:43;;;;;;;10.40;7.40;;;25.80;89.20;;;;;;10058543;28;20041;-66
2022/08/27 19:51:34;;;;;;;11.10;7.53;;;25.70;90.00;;;;;;10058338;28;20044;-65
2022/08/27 19:56:27;;;;;;;10.45;7.00;;;25.70;90.40;;;;;;10059791;28;20406;-65
2022/08/27 20:01:18;;;;;;;13.30;7.90;;;25.80;90.60;;;;;;10067330;28;20025;-68
2022/08/27 20:06:09;;;;;;;11.02;7.40;;;25.70;91.00;;;;;;10060628;28;20485;-66
2022/08/27 20:11:00;;;;;;;11.80;8.43;;;25.50;91.50;;;;;;10054337;28;20034;-66
2022/08/27 20:15:50;;;;;;;12.23;8.23;;;25.50;91.80;;;;;;10068572;28;20049;-68
2022/08/27 20:20:41;;;;;;;11.48;8.30;;;25.40;92.40;;;;;;10043777;28;20064;-67
2022/08/27 20:25:33;;;;;;;11.68;7.70;;;25.40;92.50;;;;;;10058906;28;20018;-66
2022/08/27 20:30:26;;;;;;;13.15;8.20;;;25.30;92.80;;;;;;10052117;28;20057;-65
2022/08/27 20:35:17;;;;;;;12.70;7.80;;;25.30;93.30;;;;;;10055796;28;20074;-68
2022/08/27 20:40:12;;;;;;;14.15;8.43;;;25.10;93.60;;;;;;10065276;28;20124;-66
2022/08/27 20:45:04;;;;;;;15.20;8.05;;;25.10;94.10;;;;;;10057490;28;20032;-70
2022/08/27 20:49:55;;;;;;;13.73;8.15;;;25.10;94.20;;;;;;10056585;28;20033;-68
2022/08/27 20:54:46;;;;;;;12.27;7.78;;;25.10;94.40;;;;;;10056406;28;20017;-66
2022/08/27 21:04:46;;;;;;;13.75;8.63;;;25.10;94.80;;;;;;10057197;28;20036;-66
2022/08/27 21:09:37;;;;;;;13.95;9.18;;;25.00;95.00;;;;;;10071437;28;20049;-66
2022/08/27 21:14:27;;;;;;;13.85;7.35;;;25.00;95.10;;;;;;10067434;28;20395;-67
2022/08/27 21:19:18;;;;;;;14.82;9.23;;;25.00;95.30;;;;;;10056731;28;20084;-68
2022/08/27 21:24:09;;;;;;;10.40;8.38;;;25.00;95.40;;;;;;10056353;28;20035;-66
2022/08/27 21:28:59;;;;;;;12.40;8.23;;;25.00;95.50;;;;;;10068195;28;20128;-66
2022/08/27 21:33:50;;;;;;;14.35;7.82;;;24.90;95.70;;;;;;10056202;28;20029;-66
2022/08/27 21:38:41;;;;;;;12.10;8.88;;;24.90;95.90;;;;;;10063504;28;20018;-66
2022/08/27 21:43:31;;;;;;;12.73;8.93;;;24.80;96.10;;;;;;10051669;28;20040;-66
2022/08/27 21:48:23;;;;;;;12.13;9.07;;;24.70;96.30;;;;;;10055473;28;20026;-66
2022/08/27 21:53:15;;;;;;;15.27;9.23;;;24.60;96.70;;;;;;10057619;28;20091;-66
2022/08/27 21:58:06;;;;;;;14.43;9.32;;;24.50;97.00;;;;;;10049845;28;20113;-67
2022/08/27 22:02:57;;;;;;;13.38;9.02;;;24.50;97.00;;;;;;10060666;28;20037;-66
2022/08/27 22:07:48;;;;;;;14.05;8.55;;;24.30;97.20;;;;;;10061281;28;20097;-65
2022/08/27 22:12:39;;;;;;;13.38;9.23;;;24.30;97.40;;;;;;10067571;28;20127;-64
2022/08/27 22:17:30;;;;;;;13.73;9.10;;;24.50;97.20;;;;;;10056241;28;20061;-66
2022/08/27 22:22:21;;;;;;;8.98;7.55;;;24.40;97.30;;;;;;10056482;28;20049;-65
2022/08/27 22:27:11;;;;;;;13.13;8.15;;;24.20;97.40;;;;;;10068617;28;20553;-67
2022/08/27 22:32:06;;;;;;;15.50;7.40;;;24.30;97.30;;;;;;10054330;28;20060;-66
2022/08/27 22:36:57;;;;;;;11.93;7.38;;;24.30;97.30;;;;;;10042079;28;20022;-66
2022/08/27 22:41:48;;;;;;;12.13;7.72;;;24.40;97.10;;;;;;10056474;28;20033;-65
2022/08/27 22:46:38;;;;;;;9.25;6.55;;;24.30;97.20;;;;;;10019071;28;20021;-65
2022/08/27 22:51:29;;;;;;;10.98;8.40;;;24.20;97.10;;;;;;10060630;28;20408;-65
2022/08/27 22:56:19;;;;;;;9.55;7.60;;;24.00;97.40;;;;;;10050215;28;20120;-65
2022/08/27 23:01:10;;;;;;;9.85;6.68;;;24.00;97.40;;;;;;10053434;28;20049;-65
2022/08/27 23:06:01;;;;;;;11.70;6.70;;;23.80;97.70;;;;;;10057381;28;20025;-65
2022/08/27 23:10:53;;;;;;;9.63;7.20;;;23.80;97.70;;;;;;10058791;28;20029;-66
2022/08/27 23:15:44;;;;;;;8.48;6.25;;;23.70;97.80;;;;;;10061305;28;20018;-67
2022/08/27 23:20:35;;;;;;;10.02;5.53;;;23.50;97.90;;;;;;10046363;28;20029;-66
2022/08/27 23:30:36;;;;;;;9.23;6.30;;;23.50;98.00;;;;;;10052589;28;20103;-66
2022/08/27 23:35:27;;;;;;;7.63;5.18;;;23.50;97.80;;;;;;10058844;28;20071;-65
2022/08/27 23:40:20;;;;;;;9.43;5.75;;;23.50;97.80;;;;;;10062550;28;20041;-67
2022/08/27 23:45:13;;;;;;;11.13;5.75;;;23.40;97.80;;;;;;10053674;28;20108;-67
2022/08/27 23:50:05;;;;;;;6.65;5.60;;;23.40;97.80;;;;;;10046643;28;20038;-66
2022/08/27 23:54:56;;;;;;;6.55;5.03;;;23.40;97.90;;;;;;10051085;28;20097;-66
2022/08/27 23:59:47;;;;;;;7.47;5.10;;;23.30;97.80;;;;;;10051040;28;20053;-68
